Time;durP1;ratioP1;P1;durP2;ratioP2;P2;SDS_P1;SDS_P2;PMS_P1;PMS_P2;Temp;Humidity;BMP_temperature;BMP_pressure;BME280_temperature;BME280_humidity;BME280_pressure;Samples;Min_cycle;Max_cycle;Signal;HPM_P1;HPM_P2
2023/06/09 00:00:31;;;;;;;4.18;2.80;;;22.80;53.60;;;;;;5072889;28;20234;-69
2023/06/09 00:02:57;;;;;;;3.90;3.00;;;22.80;53.60;;;;;;5073633;28;20642;-70
2023/06/09 00:05:23;;;;;;;3.03;2.70;;;22.70;53.50;;;;;;5073609;28;20604;-70
2023/06/09 00:07:52;;;;;;;6.32;3.17;;;22.80;53.50;;;;;;5072784;28;20653;-69
2023/06/09 00:10:18;;;;;;;3.47;2.90;;;22.80;53.50;;;;;;5073424;28;20182;-68
2023/06/09 00:12:44;;;;;;;3.90;2.85;;;22.80;53.40;;;;;;5073698;28;20653;-68
2023/06/09 00:15:14;;;;;;;3.33;3.03;;;22.70;53.40;;;;;;5072597;28;20205;-68
2023/06/09 00:17:40;;;;;;;4.30;2.55;;;22.80;53.40;;;;;;5073498;28;20202;-67
2023/06/09 00:20:09;;;;;;;5.40;3.08;;;22.80;53.40;;;;;;5073102;28;20734;-68
2023/06/09 00:22:42;;;;;;;4.40;3.00;;;22.70;53.30;;;;;;5072388;28;20198;-68
2023/06/09 00:25:12;;;;;;;4.32;3.30;;;22.70;53.30;;;;;;5073272;28;20539;-67
2023/06/09 00:27:42;;;;;;;4.03;2.83;;;22.70;53.30;;;;;;5073291;28;20178;-68
2023/06/09 00:30:08;;;;;;;4.10;2.65;;;22.70;53.30;;;;;;5072198;28;20626;-68
2023/06/09 00:32:34;;;;;;;4.75;3.08;;;22.70;53.30;;;;;;5073139;28;20247;-71
2023/06/09 00:34:59;;;;;;;3.78;2.63;;;22.70;53.30;;;;;;5073148;28;20621;-70
2023/06/09 00:37:25;;;;;;;3.30;3.00;;;22.70;53.30;;;;;;5072158;28;20182;-67
2023/06/09 00:39:50;;;;;;;3.30;3.00;;;22.70;53.30;;;;;;5073001;28;20697;-68
2023/06/09 00:42:16;;;;;;;3.30;2.85;;;22.70;53.30;;;;;;5071982;28;20219;-68
2023/06/09 00:44:42;;;;;;;4.47;2.83;;;22.70;53.30;;;;;;5072985;28;20175;-70
2023/06/09 00:47:07;;;;;;;3.20;2.58;;;22.60;53.30;;;;;;5072617;28;20175;-69
2023/06/09 00:49:33;;;;;;;4.10;2.80;;;22.70;53.30;;;;;;5071902;28;20180;-68
2023/06/09 00:51:58;;;;;;;3.22;2.65;;;22.70;53.30;;;;;;5071848;28;20192;-68
2023/06/09 00:54:24;;;;;;;3.08;2.70;;;22.70;53.20;;;;;;5071314;28;20625;-68
2023/06/09 00:56:50;;;;;;;3.20;2.83;;;22.70;53.20;;;;;;5070886;28;20638;-69
2023/06/09 00:59:15;;;;;;;4.00;2.88;;;22.60;53.80;;;;;;5072374;28;20259;-68
2023/06/09 01:01:43;;;;;;;3.42;3.10;;;22.60;53.20;;;;;;5072899;28;20536;-69
2023/06/09 01:04:09;;;;;;;2.90;2.53;;;22.60;53.20;;;;;;5071737;28;20194;-69
2023/06/09 01:06:56;;;;;;;3.13;2.60;;;22.60;53.20;;;;;;5072858;28;20201;-69
2023/06/09 01:09:25;;;;;;;4.20;3.40;;;22.60;53.20;;;;;;5055651;28;20652;-69
2023/06/09 01:12:26;;;;;;;4.40;2.78;;;22.60;53.20;;;;;;5070799;28;20191;-68
2023/06/09 01:14:58;;;;;;;3.70;2.72;;;22.60;53.20;;;;;;5030392;28;20529;-67
2023/06/09 01:17:23;;;;;;;2.83;2.55;;;22.60;53.20;;;;;;5060431;28;20187;-68
2023/06/09 01:19:54;;;;;;;3.60;2.83;;;22.60;53.20;;;;;;5054614;28;20637;-67
2023/06/09 01:22:50;;;;;;;3.67;3.17;;;22.60;53.20;;;;;;5071104;28;20182;-68
2023/06/09 01:25:31;;;;;;;5.20;2.75;;;22.60;53.20;;;;;;5071792;28;20178;-68
2023/06/09 01:27:57;;;;;;;3.83;2.55;;;22.60;53.20;;;;;;5072566;28;20178;-68
2023/06/09 01:30:29;;;;;;;4.28;2.80;;;22.60;53.20;;;;;;5054437;28;20178;-69
2023/06/09 01:32:56;;;;;;;3.78;2.67;;;22.60;53.20;;;;;;5071760;28;20185;-71
2023/06/09 01:35:22;;;;;;;3.75;2.60;;;22.60;53.20;;;;;;5070826;28;20189;-69
2023/06/09 01:37:47;;;;;;;3.55;2.65;;;22.60;53.20;;;;;;5071205;28;20226;-68
2023/06/09 01:40:13;;;;;;;3.47;2.83;;;22.60;53.20;;;;;;5070311;28;20218;-68
2023/06/09 01:42:38;;;;;;;5.57;2.97;;;22.60;53.40;;;;;;5071414;28;20178;-68
2023/06/09 01:45:04;;;;;;;4.28;2.92;;;22.50;53.20;;;;;;5072308;28;20175;-68
2023/06/09 01:47:30;;;;;;;5.18;3.08;;;22.60;53.20;;;;;;5071285;28;20220;-70
2023/06/09 01:50:01;;;;;;;3.83;3.03;;;22.60;53.20;;;;;;5073991;28;20186;-68
2023/06/09 01:52:32;;;;;;;3.97;2.78;;;22.50;53.20;;;;;;5075593;28;20171;-69
2023/06/09 01:55:00;;;;;;;3.15;2.85;;;22.50;53.20;;;;;;5075053;28;20179;-68
2023/06/09 01:57:32;;;;;;;4.25;2.85;;;22.50;53.20;;;;;;5075738;28;20186;-68
2023/06/09 02:00:00;;;;;;;4.30;2.78;;;22.50;53.20;;;;;;5074021;28;20564;-68
2023/06/09 02:02:26;;;;;;;4.32;2.85;;;22.50;53.20;;;;;;5057828;28;20216;-70
2023/06/09 02:04:53;;;;;;;3.03;2.55;;;22.60;53.20;;;;;;5074933;28;20186;-69
2023/06/09 02:07:19;;;;;;;4.30;2.67;;;22.50;53.20;;;;;;5073745;28;20599;-69
2023/06/09 02:09:44;;;;;;;2.90;2.60;;;22.50;53.10;;;;;;5058236;28;20186;-68
2023/06/09 02:12:10;;;;;;;5.80;3.20;;;22.40;53.10;;;;;;5075654;28;20265;-67
2023/06/09 02:14:36;;;;;;;4.63;3.17;;;22.50;53.10;;;;;;5073912;28;20257;-68
2023/06/09 02:17:04;;;;;;;4.30;2.92;;;22.50;53.20;;;;;;5075575;28;20228;-68
2023/06/09 02:19:30;;;;;;;4.68;3.15;;;22.50;53.20;;;;;;5075364;28;20302;-67
2023/06/09 02:21:57;;;;;;;4.00;3.08;;;22.50;53.80;;;;;;5073696;28;20254;-67
2023/06/09 02:24:27;;;;;;;4.25;3.15;;;22.40;53.10;;;;;;5075270;28;20224;-68
2023/06/09 02:26:56;;;;;;;3.55;2.67;;;22.50;53.20;;;;;;5075663;28;20244;-68
2023/06/09 02:29:24;;;;;;;3.63;2.92;;;22.50;53.20;;;;;;5074385;28;20236;-69
2023/06/09 02:31:49;;;;;;;3.60;2.72;;;22.40;53.20;;;;;;5075405;28;20178;-68
2023/06/09 02:34:15;;;;;;;5.00;3.00;;;22.40;53.20;;;;;;5074966;28;20179;-70
2023/06/09 02:36:42;;;;;;;4.40;2.85;;;22.50;53.20;;;;;;5074584;28;20663;-70
2023/06/09 02:39:08;;;;;;;3.97;2.60;;;22.40;53.20;;;;;;5074818;28;20317;-68
2023/06/09 02:41:34;;;;;;;5.85;2.72;;;22.40;53.10;;;;;;5075296;28;20196;-68
2023/06/09 02:43:59;;;;;;;4.40;2.90;;;22.40;53.10;;;;;;5074369;28;20178;-68
2023/06/09 02:46:25;;;;;;;5.25;2.90;;;22.40;53.10;;;;;;5074747;28;20687;-69
2023/06/09 02:48:50;;;;;;;4.88;3.13;;;22.40;53.10;;;;;;5074279;28;20281;-69
2023/06/09 02:51:16;;;;;;;3.40;2.80;;;22.40;53.10;;;;;;5074920;28;20178;-68
2023/06/09 02:53:42;;;;;;;3.83;2.75;;;22.30;53.10;;;;;;5075157;28;20316;-68
2023/06/09 02:56:08;;;;;;;4.40;3.15;;;22.40;53.20;;;;;;5074130;28;20170;-67
2023/06/09 02:58:34;;;;;;;4.78;3.13;;;22.30;53.10;;;;;;5074956;28;20182;-69
2023/06/09 03:01:01;;;;;;;3.30;2.45;;;22.40;53.10;;;;;;5073630;28;20218;-69
2023/06/09 03:03:28;;;;;;;3.17;2.55;;;22.40;53.10;;;;;;5073886;28;20202;-68
2023/06/09 03:05:54;;;;;;;4.20;2.85;;;22.40;53.10;;;;;;5074874;28;20197;-69
2023/06/09 03:08:19;;;;;;;6.05;3.42;;;22.40;53.10;;;;;;5074480;28;20178;-68
2023/06/09 03:10:48;;;;;;;6.70;2.90;;;22.30;53.00;;;;;;5074107;28;20645;-68
2023/06/09 03:13:14;;;;;;;5.00;2.63;;;22.40;53.10;;;;;;5074393;28;20770;-69
2023/06/09 03:15:40;;;;;;;4.55;2.55;;;22.30;53.00;;;;;;5074945;28;20182;-68
2023/06/09 03:18:07;;;;;;;5.68;3.13;;;22.40;53.20;;;;;;5073914;28;20174;-67
2023/06/09 03:20:36;;;;;;;6.18;2.95;;;22.30;53.10;;;;;;5074421;28;20601;-68
2023/06/09 03:23:01;;;;;;;3.08;2.63;;;22.30;53.10;;;;;;5074491;28;20209;-68
2023/06/09 03:25:27;;;;;;;4.32;2.83;;;22.30;53.10;;;;;;5073309;28;20202;-68
2023/06/09 03:27:53;;;;;;;3.97;2.70;;;22.30;53.00;;;;;;5074192;28;20260;-68
2023/06/09 03:30:19;;;;;;;3.53;2.55;;;22.30;53.00;;;;;;5074175;28;20174;-69
2023/06/09 03:32:45;;;;;;;4.13;2.75;;;22.30;53.10;;;;;;5073705;28;20507;-71
2023/06/09 03:35:10;;;;;;;4.00;3.20;;;22.30;53.10;;;;;;5073808;28;20227;-71
2023/06/09 03:37:36;;;;;;;3.42;3.00;;;22.30;53.00;;;;;;5074078;28;20171;-68
2023/06/09 03:40:04;;;;;;;5.53;2.90;;;22.20;53.00;;;;;;5073397;28;20206;-68
2023/06/09 03:42:30;;;;;;;3.97;2.63;;;22.30;53.10;;;;;;5072495;28;20250;-69
2023/06/09 03:44:58;;;;;;;3.83;2.72;;;22.30;53.00;;;;;;5074170;28;20327;-68
2023/06/09 03:47:24;;;;;;;4.60;3.50;;;22.30;53.00;;;;;;5073295;28;20609;-69
2023/06/09 03:49:50;;;;;;;4.22;3.15;;;22.30;53.00;;;;;;5074014;28;20189;-68
2023/06/09 03:52:15;;;;;;;4.13;2.67;;;22.30;53.10;;;;;;5072911;28;20170;-68
2023/06/09 03:54:41;;;;;;;4.35;2.72;;;22.30;53.10;;;;;;5073790;28;20175;-68
2023/06/09 03:57:06;;;;;;;3.78;3.03;;;22.30;53.10;;;;;;5073435;28;20181;-68
2023/06/09 03:59:32;;;;;;;3.70;2.75;;;22.30;53.00;;;;;;5073010;28;20221;-68
2023/06/09 04:01:57;;;;;;;4.45;2.90;;;22.20;53.00;;;;;;5073944;28;20554;-68
2023/06/09 04:04:23;;;;;;;3.50;2.78;;;22.20;53.00;;;;;;5073207;28;20265;-70
2023/06/09 04:06:48;;;;;;;6.53;3.10;;;22.30;53.00;;;;;;5072910;28;20163;-69
2023/06/09 04:09:15;;;;;;;4.75;3.15;;;22.30;53.00;;;;;;5073097;28;20178;-68
2023/06/09 04:11:40;;;;;;;3.55;2.80;;;22.30;53.00;;;;;;5073173;28;20228;-68
2023/06/09 04:14:06;;;;;;;5.00;3.10;;;22.30;53.00;;;;;;5072612;28;20170;-67
2023/06/09 04:16:32;;;;;;;3.67;2.60;;;22.20;52.90;;;;;;5073075;28;20266;-69
2023/06/09 04:18:57;;;;;;;4.28;3.03;;;22.30;53.00;;;;;;5073236;28;20182;-67
2023/06/09 04:21:23;;;;;;;5.45;3.03;;;22.20;52.90;;;;;;5072190;28;20174;-67
2023/06/09 04:23:48;;;;;;;3.22;2.92;;;22.30;53.00;;;;;;5073092;28;20206;-67
2023/06/09 04:26:14;;;;;;;5.72;3.38;;;22.30;53.00;;;;;;5072692;28;20609;-67
2023/06/09 04:28:40;;;;;;;3.67;2.78;;;22.30;53.00;;;;;;5072469;28;20217;-69
2023/06/09 04:31:08;;;;;;;5.15;3.28;;;22.30;53.00;;;;;;5073096;28;20184;-68
2023/06/09 04:33:39;;;;;;;4.20;2.83;;;22.30;53.00;;;;;;5073169;28;20327;-69
2023/06/09 04:36:05;;;;;;;3.95;3.10;;;22.30;53.00;;;;;;5072544;28;20192;-68
2023/06/09 04:38:32;;;;;;;4.75;2.83;;;22.30;53.60;;;;;;5072697;28;20237;-67
2023/06/09 04:41:03;;;;;;;4.82;2.85;;;22.30;52.90;;;;;;5072771;28;20293;-68
2023/06/09 04:43:32;;;;;;;5.55;3.00;;;22.30;52.90;;;;;;5072012;28;20178;-68
2023/06/09 04:45:59;;;;;;;3.75;2.90;;;22.30;52.90;;;;;;5072938;28;20213;-67
2023/06/09 04:48:25;;;;;;;4.38;3.03;;;22.30;52.90;;;;;;5071987;28;20178;-69
2023/06/09 04:50:51;;;;;;;4.15;3.08;;;22.30;52.90;;;;;;5073016;28;20178;-68
2023/06/09 04:53:19;;;;;;;5.75;2.85;;;22.30;52.90;;;;;;5072396;28;20655;-67
2023/06/09 04:55:45;;;;;;;5.47;3.38;;;22.30;52.90;;;;;;5072035;28;20598;-67
2023/06/09 04:58:11;;;;;;;5.20;3.15;;;22.30;52.90;;;;;;5072543;28;20170;-67
2023/06/09 05:00:37;;;;;;;6.45;3.30;;;22.30;52.90;;;;;;5072888;28;20214;-68
2023/06/09 05:03:03;;;;;;;4.93;3.45;;;22.30;52.90;;;;;;5072161;28;20173;-68
2023/06/09 05:05:28;;;;;;;6.55;3.78;;;22.30;52.90;;;;;;5072442;28;20723;-68
2023/06/09 05:07:54;;;;;;;5.43;2.80;;;22.30;52.90;;;;;;5072659;28;20174;-67
2023/06/09 05:10:21;;;;;;;5.55;3.35;;;22.30;52.90;;;;;;5071595;28;20178;-67
2023/06/09 05:12:46;;;;;;;3.72;3.05;;;22.30;52.90;;;;;;5072826;28;20174;-67
2023/06/09 05:15:12;;;;;;;4.57;2.90;;;22.30;52.90;;;;;;5072405;28;20178;-67
2023/06/09 05:17:37;;;;;;;4.35;3.20;;;22.30;52.90;;;;;;5071919;28;20217;-67
2023/06/09 05:20:06;;;;;;;5.75;2.80;;;22.30;52.90;;;;;;5072603;28;20198;-66
2023/06/09 05:22:32;;;;;;;4.05;3.15;;;22.30;52.90;;;;;;5072332;28;20171;-67
2023/06/09 05:24:58;;;;;;;5.07;3.20;;;22.30;52.90;;;;;;5075396;28;20214;-67
2023/06/09 05:27:23;;;;;;;3.42;2.90;;;22.30;52.90;;;;;;5076493;28;20201;-67
2023/06/09 05:29:49;;;;;;;3.53;2.67;;;22.30;53.00;;;;;;5076910;28;20178;-68
2023/06/09 05:32:14;;;;;;;4.05;3.00;;;22.30;53.00;;;;;;5075418;28;20189;-71
2023/06/09 05:34:40;;;;;;;5.95;3.13;;;22.30;53.00;;;;;;5076591;28;20170;-69
2023/06/09 05:37:06;;;;;;;4.25;3.08;;;22.40;53.00;;;;;;5076186;28;20569;-68
2023/06/09 05:39:32;;;;;;;3.70;2.90;;;22.40;53.10;;;;;;5075406;28;20237;-68
2023/06/09 05:41:57;;;;;;;6.30;3.45;;;22.40;53.00;;;;;;5076591;28;20269;-68
2023/06/09 05:44:23;;;;;;;4.93;3.10;;;22.40;53.10;;;;;;5075891;28;20257;-69
2023/06/09 05:46:48;;;;;;;4.60;3.17;;;22.40;53.10;;;;;;5075692;28;20265;-68
2023/06/09 05:49:14;;;;;;;3.67;2.90;;;22.30;53.00;;;;;;5075833;28;20249;-69
2023/06/09 05:51:39;;;;;;;4.45;2.72;;;22.30;53.10;;;;;;5075346;28;20179;-67
2023/06/09 05:54:06;;;;;;;3.95;3.15;;;22.40;53.10;;;;;;5075938;28;20178;-67
2023/06/09 05:56:32;;;;;;;7.28;3.42;;;22.40;53.10;;;;;;5075965;28;20242;-69
2023/06/09 05:59:03;;;;;;;4.35;2.58;;;22.40;53.10;;;;;;5075333;28;20175;-68
2023/06/09 06:01:32;;;;;;;3.15;2.85;;;22.40;53.20;;;;;;5075567;28;20625;-69
2023/06/09 06:03:58;;;;;;;3.60;3.30;;;22.40;53.20;;;;;;5075986;28;20182;-68
2023/06/09 06:06:24;;;;;;;4.53;2.97;;;22.40;53.80;;;;;;5075072;28;20171;-69
2023/06/09 06:08:50;;;;;;;3.97;2.65;;;22.40;53.20;;;;;;5075885;28;20178;-70
2023/06/09 06:11:15;;;;;;;5.18;3.20;;;22.40;53.40;;;;;;5075620;28;20236;-67
2023/06/09 06:13:41;;;;;;;5.22;3.22;;;22.40;53.30;;;;;;5075295;28;20183;-67
2023/06/09 06:16:06;;;;;;;3.85;3.10;;;22.40;53.30;;;;;;5075417;28;20171;-67
2023/06/09 06:18:32;;;;;;;5.80;3.13;;;22.40;53.30;;;;;;5075612;28;20178;-67
2023/06/09 06:20:57;;;;;;;5.25;3.70;;;22.40;53.30;;;;;;5074724;28;20206;-67
2023/06/09 06:23:23;;;;;;;3.22;2.92;;;22.40;53.30;;;;;;5075357;28;20167;-66
2023/06/09 06:25:50;;;;;;;7.25;3.17;;;22.40;53.30;;;;;;5075724;28;20213;-67
2023/06/09 06:28:16;;;;;;;4.43;3.08;;;22.40;53.30;;;;;;5074467;28;20225;-68
2023/06/09 06:30:42;;;;;;;3.10;2.70;;;22.40;53.30;;;;;;5075676;28;20641;-69
2023/06/09 06:33:07;;;;;;;4.28;3.58;;;22.40;53.30;;;;;;5075215;28;20220;-69
2023/06/09 06:35:33;;;;;;;3.65;2.83;;;22.40;53.30;;;;;;5074343;28;20182;-69
2023/06/09 06:37:58;;;;;;;5.22;3.10;;;22.50;53.40;;;;;;5075159;28;20750;-68
2023/06/09 06:40:24;;;;;;;4.30;3.28;;;22.40;53.40;;;;;;5075170;28;20209;-68
2023/06/09 06:42:51;;;;;;;3.70;2.85;;;22.40;53.40;;;;;;5074749;28;20171;-68
2023/06/09 06:45:16;;;;;;;3.45;3.13;;;22.50;53.40;;;;;;5075082;28;20176;-69
2023/06/09 06:47:43;;;;;;;5.07;3.63;;;22.50;53.40;;;;;;5075127;28;20175;-68
2023/06/09 06:50:09;;;;;;;5.07;3.00;;;22.50;53.30;;;;;;5074143;28;20174;-68
2023/06/09 06:52:35;;;;;;;4.22;2.80;;;22.50;53.40;;;;;;5075060;28;20178;-69
2023/06/09 06:55:00;;;;;;;4.03;2.97;;;22.50;53.40;;;;;;5074512;28;20691;-67
2023/06/09 06:57:26;;;;;;;3.85;2.55;;;22.50;53.40;;;;;;5074527;28;20687;-68
2023/06/09 06:59:52;;;;;;;4.57;3.35;;;22.50;53.40;;;;;;5074908;28;20301;-68
2023/06/09 07:02:17;;;;;;;4.05;2.95;;;22.60;53.50;;;;;;5073792;28;20671;-68
2023/06/09 07:04:43;;;;;;;4.57;2.90;;;22.50;53.40;;;;;;5074768;28;20192;-69
2023/06/09 07:07:09;;;;;;;4.13;3.15;;;22.60;53.50;;;;;;5074776;28;20177;-69
2023/06/09 07:09:35;;;;;;;4.32;3.58;;;22.60;53.50;;;;;;5074056;28;20265;-68
2023/06/09 07:12:01;;;;;;;4.55;2.85;;;22.50;53.40;;;;;;5074564;28;20667;-67
2023/06/09 07:14:28;;;;;;;4.32;3.22;;;22.50;53.40;;;;;;5074355;28;20182;-67
2023/06/09 07:16:53;;;;;;;3.63;3.30;;;22.50;53.40;;;;;;5073960;28;20179;-68
2023/06/09 07:19:19;;;;;;;5.28;3.20;;;22.50;53.40;;;;;;5073994;28;20293;-67
2023/06/09 07:21:45;;;;;;;4.00;3.05;;;22.50;53.40;;;;;;5074350;28;20170;-68
2023/06/09 07:24:10;;;;;;;5.70;2.88;;;22.60;53.40;;;;;;5073492;28;20243;-67
2023/06/09 07:26:36;;;;;;;3.17;2.88;;;22.60;53.50;;;;;;5074189;28;20224;-66
2023/06/09 07:29:01;;;;;;;4.53;3.33;;;22.60;53.50;;;;;;5074462;28;20206;-65
2023/06/09 07:31:27;;;;;;;4.63;3.15;;;22.70;53.50;;;;;;5073244;28;20247;-67
2023/06/09 07:33:52;;;;;;;3.92;2.80;;;22.60;53.70;;;;;;5073939;28;20171;-67
2023/06/09 07:36:19;;;;;;;3.92;3.35;;;22.60;53.70;;;;;;5073120;28;20171;-67
2023/06/09 07:38:46;;;;;;;3.70;3.00;;;22.70;53.60;;;;;;5072798;28;20236;-67
2023/06/09 07:41:12;;;;;;;4.95;2.90;;;22.70;53.50;;;;;;5073043;28;20214;-66
2023/06/09 07:43:38;;;;;;;4.60;3.30;;;22.80;53.60;;;;;;5073424;28;20194;-66
2023/06/09 07:46:03;;;;;;;5.30;3.42;;;22.80;53.60;;;;;;5072096;28;20224;-68
2023/06/09 07:48:29;;;;;;;4.00;2.97;;;22.80;53.60;;;;;;5073063;28;20166;-66
2023/06/09 07:50:54;;;;;;;4.43;2.83;;;22.90;53.70;;;;;;5073535;28;20210;-66
2023/06/09 07:53:23;;;;;;;5.60;3.40;;;22.90;53.70;;;;;;5071218;28;20193;-67
2023/06/09 07:55:48;;;;;;;5.03;3.15;;;22.90;53.70;;;;;;5073749;28;20637;-68
2023/06/09 07:58:14;;;;;;;6.72;3.38;;;22.90;53.70;;;;;;5072681;28;20174;-70
2023/06/09 08:00:41;;;;;;;4.75;2.80;;;22.90;53.70;;;;;;5073611;28;20202;-70
2023/06/09 08:03:06;;;;;;;3.95;3.10;;;22.90;53.80;;;;;;5073673;28;20266;-70
2023/06/09 08:05:32;;;;;;;6.20;3.25;;;22.90;53.80;;;;;;5072863;28;20641;-70
2023/06/09 08:07:59;;;;;;;4.55;3.15;;;23.00;53.90;;;;;;5073690;28;20621;-68
2023/06/09 08:10:25;;;;;;;5.72;3.45;;;23.00;54.00;;;;;;5072774;28;20218;-67
2023/06/09 08:12:51;;;;;;;4.95;3.15;;;23.00;54.00;;;;;;5072861;28;20198;-66
2023/06/09 08:15:16;;;;;;;6.32;3.10;;;23.00;54.00;;;;;;5073226;28;20232;-67
2023/06/09 08:17:42;;;;;;;5.28;3.22;;;23.10;54.10;;;;;;5073384;28;20171;-66
2023/06/09 08:20:07;;;;;;;9.27;3.72;;;23.10;54.00;;;;;;5072513;28;20256;-66
2023/06/09 08:22:33;;;;;;;5.80;3.40;;;23.10;54.00;;;;;;5073321;28;20174;-66
2023/06/09 08:24:59;;;;;;;5.47;3.42;;;23.10;54.00;;;;;;5073157;28;20200;-67
2023/06/09 08:27:24;;;;;;;4.32;3.22;;;23.10;54.00;;;;;;5072288;28;20261;-68
2023/06/09 08:29:50;;;;;;;3.97;3.05;;;23.10;54.10;;;;;;5073162;28;20274;-69
2023/06/09 08:32:16;;;;;;;3.80;3.03;;;23.20;54.10;;;;;;5072785;28;20544;-72
2023/06/09 08:34:42;;;;;;;4.70;3.83;;;23.20;54.10;;;;;;5072303;28;20545;-69
2023/06/09 08:37:11;;;;;;;4.78;3.25;;;23.20;54.10;;;;;;5073052;28;20170;-68
2023/06/09 08:39:36;;;;;;;4.82;3.72;;;23.20;54.10;;;;;;5072733;28;20238;-68
2023/06/09 08:42:06;;;;;;;4.93;3.35;;;23.20;54.00;;;;;;5072420;28;20558;-66
2023/06/09 08:44:35;;;;;;;4.88;3.22;;;23.20;54.00;;;;;;5072844;28;20537;-68
2023/06/09 08:47:04;;;;;;;5.25;3.25;;;23.20;54.10;;;;;;5072916;28;20185;-68
2023/06/09 08:49:29;;;;;;;4.05;2.72;;;23.20;54.00;;;;;;5070821;28;20220;-69
2023/06/09 08:51:56;;;;;;;3.83;3.08;;;23.20;54.00;;;;;;5071799;28;20633;-68
2023/06/09 08:54:22;;;;;;;4.55;2.65;;;23.20;54.00;;;;;;5071471;28;20186;-67
2023/06/09 08:56:47;;;;;;;4.75;3.20;;;23.30;54.10;;;;;;5071007;28;20163;-68
2023/06/09 08:59:13;;;;;;;4.40;2.80;;;23.30;54.00;;;;;;5070235;28;20214;-68
2023/06/09 09:01:38;;;;;;;3.80;3.17;;;23.20;53.90;;;;;;5071541;28;20179;-69
2023/06/09 09:04:04;;;;;;;3.63;3.08;;;23.40;54.00;;;;;;5072752;28;20238;-68
2023/06/09 09:06:31;;;;;;;3.00;2.70;;;23.30;53.90;;;;;;5072412;28;20172;-70
2023/06/09 09:08:57;;;;;;;4.68;3.38;;;23.30;53.90;;;;;;5072173;28;20174;-68
2023/06/09 09:11:23;;;;;;;5.05;3.40;;;23.40;54.00;;;;;;5072439;28;20167;-67
2023/06/09 09:13:49;;;;;;;4.50;3.05;;;23.40;54.00;;;;;;5072629;28;20181;-67
2023/06/09 09:16:15;;;;;;;3.90;3.42;;;23.40;54.10;;;;;;5071845;28;20179;-67
2023/06/09 09:18:44;;;;;;;3.75;3.33;;;23.40;54.00;;;;;;5072717;28;20179;-67
2023/06/09 09:21:11;;;;;;;3.17;2.88;;;23.50;54.10;;;;;;5072443;28;20275;-67
2023/06/09 09:23:37;;;;;;;6.85;3.15;;;23.50;54.10;;;;;;5071724;28;20633;-66
2023/06/09 09:26:03;;;;;;;4.78;3.10;;;23.50;54.10;;;;;;5072476;28;20232;-68
2023/06/09 09:28:41;;;;;;;5.07;3.00;;;23.50;54.10;;;;;;5072216;28;20181;-68
2023/06/09 09:31:08;;;;;;;5.25;3.20;;;23.50;54.20;;;;;;5071598;28;20174;-69
2023/06/09 09:33:34;;;;;;;5.05;3.50;;;23.50;54.20;;;;;;5072676;28;20252;-70
2023/06/09 09:35:59;;;;;;;3.38;3.03;;;23.50;54.30;;;;;;5072664;28;20217;-69
2023/06/09 09:38:27;;;;;;;4.38;3.85;;;23.50;54.20;;;;;;5071288;28;20249;-69
2023/06/09 09:40:54;;;;;;;4.22;3.50;;;23.60;54.20;;;;;;5072262;28;20206;-68
2023/06/09 09:43:20;;;;;;;5.65;3.20;;;23.60;54.20;;;;;;5072224;28;20171;-68
2023/06/09 09:45:47;;;;;;;3.92;3.33;;;23.60;54.30;;;;;;5071838;28;20236;-69
2023/06/09 09:48:14;;;;;;;3.97;2.85;;;23.60;54.20;;;;;;5072061;28;20668;-71
2023/06/09 09:50:41;;;;;;;3.75;3.40;;;23.60;54.30;;;;;;5072528;28;20181;-70
2023/06/09 09:53:07;;;;;;;4.07;2.95;;;23.70;54.30;;;;;;5071612;28;20503;-68
2023/06/09 09:55:34;;;;;;;3.85;3.20;;;23.70;54.30;;;;;;5071972;28;20182;-67
2023/06/09 09:58:03;;;;;;;3.47;3.00;;;23.70;54.40;;;;;;5070587;28;20174;-68
2023/06/09 10:00:28;;;;;;;3.28;2.97;;;23.70;54.30;;;;;;5070843;28;20210;-70
2023/06/09 10:02:55;;;;;;;3.35;3.03;;;23.70;54.40;;;;;;5071179;28;20173;-70
2023/06/09 10:05:21;;;;;;;4.78;3.03;;;23.70;54.40;;;;;;5070006;28;20171;-70
2023/06/09 10:07:48;;;;;;;4.03;3.50;;;23.70;54.40;;;;;;5070913;28;20179;-71
2023/06/09 10:10:13;;;;;;;4.35;3.05;;;23.70;54.40;;;;;;5072256;28;20186;-68
2023/06/09 10:12:39;;;;;;;3.92;3.55;;;23.70;54.40;;;;;;5075266;28;20166;-68
2023/06/09 10:15:08;;;;;;;4.07;3.35;;;23.80;54.40;;;;;;5074714;28;20170;-69
2023/06/09 10:17:33;;;;;;;3.55;3.25;;;23.80;54.30;;;;;;5074575;28;20638;-70
2023/06/09 10:19:59;;;;;;;5.15;3.58;;;23.80;54.30;;;;;;5073612;28;20199;-67
2023/06/09 10:22:25;;;;;;;4.05;3.42;;;23.90;54.30;;;;;;5074202;28;20175;-67
2023/06/09 10:24:51;;;;;;;5.00;3.75;;;23.90;54.30;;;;;;5074114;28;20676;-66
2023/06/09 10:27:16;;;;;;;5.40;3.53;;;23.90;54.20;;;;;;5073513;28;20178;-68
2023/06/09 10:29:42;;;;;;;4.65;3.30;;;23.90;54.30;;;;;;5075526;28;20532;-68
2023/06/09 10:32:11;;;;;;;6.63;3.33;;;23.90;54.20;;;;;;5075286;28;20650;-68
2023/06/09 10:34:37;;;;;;;4.80;3.58;;;24.00;54.20;;;;;;5074755;28;20178;-69
2023/06/09 10:37:04;;;;;;;3.97;3.58;;;24.00;54.20;;;;;;5074132;28;20167;-68
2023/06/09 10:39:55;;;;;;;3.72;3.42;;;24.00;54.20;;;;;;5073592;28;20258;-68
2023/06/09 10:42:38;;;;;;;4.00;3.10;;;24.00;54.20;;;;;;5074483;28;20173;-68
2023/06/09 10:45:13;;;;;;;4.00;3.33;;;24.00;54.10;;;;;;5074114;28;20239;-70
2023/06/09 10:47:48;;;;;;;4.05;3.72;;;24.00;54.10;;;;;;5074449;28;20202;-69
2023/06/09 10:50:27;;;;;;;5.70;3.70;;;24.00;54.10;;;;;;5075058;28;20202;-70
2023/06/09 10:52:54;;;;;;;3.88;3.53;;;24.00;54.10;;;;;;5075087;28;20636;-67
2023/06/09 10:55:21;;;;;;;8.68;4.47;;;24.00;54.10;;;;;;5073966;28;20633;-66
2023/06/09 10:57:47;;;;;;;8.93;4.03;;;24.00;54.10;;;;;;5074944;28;20276;-66
2023/06/09 11:00:13;;;;;;;7.78;4.03;;;24.10;54.10;;;;;;5074289;28;20752;-68
2023/06/09 11:02:43;;;;;;;9.15;4.28;;;24.10;54.10;;;;;;5074258;28;20170;-68
2023/06/09 11:05:09;;;;;;;6.00;4.38;;;24.10;54.20;;;;;;5074534;28;20186;-68
2023/06/09 11:07:43;;;;;;;7.65;4.50;;;24.10;54.20;;;;;;5074659;28;20182;-68
2023/06/09 11:10:11;;;;;;;6.72;4.50;;;24.20;54.30;;;;;;5073977;28;20182;-66
2023/06/09 11:12:36;;;;;;;6.63;4.50;;;24.20;54.30;;;;;;5074680;28;20633;-66
2023/06/09 11:15:02;;;;;;;6.60;3.80;;;24.20;54.40;;;;;;5074868;28;20179;-66
2023/06/09 11:17:37;;;;;;;5.70;4.45;;;24.20;54.40;;;;;;5073799;28;20324;-68
2023/06/09 11:20:11;;;;;;;8.30;5.45;;;24.20;54.40;;;;;;5074633;28;20206;-66
2023/06/09 11:22:47;;;;;;;8.80;5.22;;;24.20;54.50;;;;;;5072978;28;20527;-67
2023/06/09 11:25:19;;;;;;;8.43;4.60;;;24.20;54.40;;;;;;5074382;28;20249;-65
2023/06/09 11:27:46;;;;;;;10.60;4.93;;;24.20;54.50;;;;;;5074626;28;20171;-69
2023/06/09 11:30:19;;;;;;;9.32;5.78;;;24.30;54.40;;;;;;5073463;28;20182;-71
2023/06/09 11:32:49;;;;;;;8.13;5.32;;;24.30;54.30;;;;;;5074284;28;20676;-71
2023/06/09 11:35:39;;;;;;;8.32;5.70;;;24.20;54.30;;;;;;5073906;28;20657;-71
2023/06/09 11:38:05;;;;;;;7.65;5.40;;;24.20;54.30;;;;;;5073592;28;20278;-69
2023/06/09 11:40:33;;;;;;;7.60;5.60;;;24.20;54.30;;;;;;5073891;28;20631;-71
2023/06/09 11:42:59;;;;;;;6.30;4.90;;;24.20;54.40;;;;;;5074104;28;20183;-70
2023/06/09 11:45:25;;;;;;;9.35;5.55;;;24.20;54.50;;;;;;5073113;28;20187;-71
2023/06/09 11:47:56;;;;;;;8.32;5.45;;;24.10;54.40;;;;;;5073899;28;20170;-70
2023/06/09 11:50:22;;;;;;;8.85;5.40;;;24.20;54.50;;;;;;5073166;28;20235;-70
2023/06/09 11:52:48;;;;;;;7.40;5.13;;;24.10;54.40;;;;;;5073994;28;20175;-69
2023/06/09 11:55:15;;;;;;;7.43;4.97;;;24.10;54.40;;;;;;5055572;28;20178;-68
2023/06/09 11:57:41;;;;;;;8.48;4.90;;;24.10;54.40;;;;;;5073241;28;20193;-69
2023/06/09 12:00:14;;;;;;;7.30;5.90;;;24.10;54.40;;;;;;5072286;28;20214;-68
2023/06/09 12:02:40;;;;;;;6.80;5.00;;;24.20;54.40;;;;;;5074029;28;20185;-71
2023/06/09 12:05:08;;;;;;;5.50;4.90;;;24.20;54.30;;;;;;5072924;28;20528;-69
2023/06/09 12:07:33;;;;;;;8.15;5.55;;;24.20;54.30;;;;;;5072505;28;20170;-71
2023/06/09 12:09:59;;;;;;;7.95;5.38;;;24.20;54.20;;;;;;5055964;28;20185;-69
2023/06/09 12:12:24;;;;;;;6.82;5.35;;;24.10;54.30;;;;;;5072500;28;20561;-68
2023/06/09 12:14:50;;;;;;;6.00;4.75;;;24.10;54.20;;;;;;5073418;28;20562;-68
2023/06/09 12:17:16;;;;;;;6.13;5.15;;;24.00;54.40;;;;;;5073060;28;20178;-68
2023/06/09 12:19:42;;;;;;;8.20;5.53;;;24.10;54.20;;;;;;5072723;28;20220;-67
2023/06/09 12:22:07;;;;;;;5.57;4.82;;;24.20;54.20;;;;;;5073253;28;20190;-68
2023/06/09 12:24:33;;;;;;;6.15;4.97;;;24.20;54.00;;;;;;5073329;28;20261;-68
2023/06/09 12:27:09;;;;;;;6.70;5.35;;;24.20;53.90;;;;;;5072656;28;20253;-68
2023/06/09 12:29:36;;;;;;;5.35;4.85;;;24.20;53.80;;;;;;5073107;28;20657;-68
2023/06/09 12:32:01;;;;;;;7.78;4.93;;;24.30;53.80;;;;;;5073066;28;20524;-69
2023/06/09 12:34:29;;;;;;;6.38;5.50;;;24.30;53.80;;;;;;5072192;28;20192;-71
2023/06/09 12:36:55;;;;;;;6.70;5.15;;;24.20;53.90;;;;;;5072984;28;20545;-69
2023/06/09 12:39:22;;;;;;;7.07;5.32;;;24.30;53.80;;;;;;5072448;28;20230;-69
2023/06/09 12:41:48;;;;;;;5.22;4.72;;;24.40;53.60;;;;;;5072291;28;20182;-68
2023/06/09 12:44:25;;;;;;;6.20;5.13;;;24.50;53.50;;;;;;5072548;28;20264;-70
2023/06/09 12:46:55;;;;;;;6.00;4.90;;;24.50;53.40;;;;;;5072427;28;20508;-70